createdAt,value
2018-03-15T00:00:10.587Z,6.23
2018-03-15T00:02:48.189Z,8.03
2018-03-15T00:05:23.036Z,7.43
2018-03-15T00:07:58.187Z,6.93
2018-03-15T00:10:33.325Z,7.73
2018-03-15T00:13:08.411Z,7.10
2018-03-15T00:15:43.814Z,7.55
2018-03-15T00:18:18.964Z,7.03
2018-03-15T00:20:54.185Z,6.20
2018-03-15T00:23:30.052Z,6.40
2018-03-15T00:26:05.063Z,6.83
2018-03-15T00:28:40.297Z,7.50
2018-03-15T00:31:15.322Z,4.90
2018-03-15T00:33:50.249Z,6.57
2018-03-15T00:36:25.012Z,6.30
2018-03-15T00:38:59.805Z,5.43
2018-03-15T00:41:34.239Z,7.18
2018-03-15T00:44:09.303Z,5.83
2018-03-15T00:46:44.344Z,6.83
2018-03-15T00:49:19.479Z,7.27
2018-03-15T00:51:55.071Z,7.00
2018-03-15T00:54:30.333Z,5.80
2018-03-15T00:57:04.531Z,7.47
2018-03-15T00:59:40.253Z,7.10
2018-03-15T01:02:14.832Z,6.07
2018-03-15T01:04:50.028Z,7.40
2018-03-15T01:07:25.137Z,6.23
2018-03-15T01:10:00.269Z,5.70
2018-03-15T01:12:35.527Z,5.07
2018-03-15T01:15:10.162Z,6.53
2018-03-15T01:17:45.300Z,5.97
2018-03-15T01:20:20.201Z,7.93
2018-03-15T01:22:55.183Z,6.47
2018-03-15T01:25:30.454Z,7.27
2018-03-15T01:28:05.428Z,6.90
2018-03-15T01:30:40.450Z,5.17
2018-03-15T01:33:16.132Z,6.20
2018-03-15T01:35:51.092Z,6.90
2018-03-15T01:38:26.298Z,7.23
2018-03-15T01:41:01.219Z,5.70
2018-03-15T01:43:36.581Z,7.43
2018-03-15T01:46:12.111Z,6.97
2018-03-15T01:48:47.184Z,7.27
2018-03-15T01:51:22.155Z,7.57
2018-03-15T01:53:56.471Z,6.20
2018-03-15T01:56:31.875Z,7.70
2018-03-15T01:59:07.113Z,8.43
2018-03-15T02:01:42.322Z,7.55
2018-03-15T02:04:17.324Z,8.13
2018-03-15T02:06:52.379Z,7.60
2018-03-15T02:09:28.551Z,7.03
2018-03-15T02:12:03.838Z,7.60
2018-03-15T02:14:39.187Z,6.97
2018-03-15T02:17:13.815Z,6.60
2018-03-15T02:19:49.222Z,6.78
2018-03-15T02:22:24.296Z,6.27
2018-03-15T02:24:59.551Z,6.67
2018-03-15T02:27:34.497Z,7.33
2018-03-15T02:30:09.238Z,6.70
2018-03-15T02:32:44.358Z,7.43
2018-03-15T02:35:19.578Z,7.63
2018-03-15T02:37:54.820Z,7.47
2018-03-15T02:40:29.610Z,7.30
2018-03-15T02:43:04.317Z,7.73
2018-03-15T02:45:39.751Z,8.03
2018-03-15T02:48:14.794Z,7.60
2018-03-15T02:50:49.320Z,7.73
2018-03-15T02:53:24.769Z,4.07
2018-03-15T02:55:59.698Z,7.33
2018-03-15T02:58:34.817Z,7.40
2018-03-15T03:01:09.371Z,6.97
2018-03-15T03:03:44.592Z,7.40
2018-03-15T03:06:19.208Z,8.30
2018-03-15T03:08:54.309Z,8.00
2018-03-15T03:11:29.986Z,7.60
2018-03-15T03:14:06.590Z,7.10
2018-03-15T03:16:41.663Z,7.60
2018-03-15T03:19:16.700Z,7.87
2018-03-15T03:21:51.835Z,7.03
2018-03-15T03:24:28.722Z,6.65
2018-03-15T03:27:03.352Z,6.07
2018-03-15T03:29:38.615Z,7.25
2018-03-15T03:32:13.573Z,7.10
2018-03-15T03:34:48.573Z,6.20
2018-03-15T03:37:22.923Z,6.50
2018-03-15T03:39:58.102Z,7.35
2018-03-15T03:42:32.855Z,8.33
2018-03-15T03:45:07.081Z,7.53
2018-03-15T03:47:41.949Z,8.23
2018-03-15T03:50:16.982Z,6.80
2018-03-15T03:52:51.580Z,7.13
2018-03-15T03:55:26.715Z,7.97
2018-03-15T03:58:01.603Z,7.30
2018-03-15T04:00:36.754Z,8.60
2018-03-15T04:03:12.471Z,9.60
2018-03-15T04:05:47.439Z,8.77
2018-03-15T04:08:22.587Z,6.63
2018-03-15T04:10:57.570Z,9.80
2018-03-15T04:13:32.823Z,10.17
2018-03-15T04:16:07.758Z,9.57
2018-03-15T04:18:42.936Z,6.17
2018-03-15T04:21:17.684Z,8.77
2018-03-15T04:23:52.643Z,8.27
2018-03-15T04:26:28.828Z,10.55
2018-03-15T04:29:03.929Z,11.87
2018-03-15T04:31:38.845Z,9.80
2018-03-15T04:34:13.780Z,9.70
2018-03-15T04:36:48.925Z,9.73
2018-03-15T04:39:23.861Z,9.27
2018-03-15T04:41:58.993Z,9.40
2018-03-15T04:44:33.821Z,10.40
2018-03-15T04:47:08.688Z,11.13
2018-03-15T04:49:43.912Z,7.40
2018-03-15T04:52:19.035Z,11.37
2018-03-15T04:54:54.123Z,8.13
2018-03-15T04:57:29.564Z,11.53
2018-03-15T05:00:04.041Z,10.40
2018-03-15T05:02:39.203Z,8.90
2018-03-15T05:05:14.717Z,9.10
2018-03-15T05:07:49.159Z,9.40
2018-03-15T05:10:23.692Z,9.20
2018-03-15T05:12:58.916Z,14.20
2018-03-15T05:15:34.070Z,12.90
2018-03-15T05:18:09.505Z,15.23
2018-03-15T05:20:44.860Z,14.25
2018-03-15T05:23:19.259Z,13.40
2018-03-15T05:25:54.684Z,13.80
2018-03-15T05:28:30.030Z,17.40
2018-03-15T05:31:05.208Z,17.43
2018-03-15T05:33:39.851Z,19.83
2018-03-15T05:36:14.700Z,13.53
2018-03-15T05:38:49.684Z,17.37
2018-03-15T05:41:24.819Z,15.83
2018-03-15T05:43:59.850Z,14.30
2018-03-15T05:46:34.193Z,15.23
2018-03-15T05:49:08.789Z,15.43
2018-03-15T05:51:44.155Z,19.40
2018-03-15T05:54:19.741Z,15.10
2018-03-15T05:56:54.775Z,16.17
2018-03-15T05:59:29.978Z,17.60
2018-03-15T06:02:04.708Z,15.80
2018-03-15T06:04:40.295Z,18.67
2018-03-15T06:07:15.627Z,14.57
2018-03-15T06:09:50.658Z,18.50
2018-03-15T06:12:25.782Z,16.67
2018-03-15T06:15:00.818Z,17.90
2018-03-15T06:17:36.345Z,14.87
2018-03-15T06:20:10.912Z,12.93
2018-03-15T06:22:45.988Z,10.53
2018-03-15T06:25:21.243Z,10.53
2018-03-15T06:27:55.854Z,18.33
2018-03-15T06:30:30.985Z,15.80
2018-03-15T06:33:05.815Z,11.33
2018-03-15T06:35:40.981Z,10.93
2018-03-15T06:38:16.199Z,14.70
2018-03-15T06:40:51.185Z,12.33
2018-03-15T06:43:26.226Z,17.33
2018-03-15T06:46:01.306Z,17.53
2018-03-15T06:48:36.379Z,13.63
2018-03-15T06:51:11.872Z,14.73
2018-03-15T06:53:47.127Z,15.75
2018-03-15T06:56:21.860Z,10.20
2018-03-15T06:58:56.972Z,15.10
2018-03-15T07:01:32.262Z,11.30
2018-03-15T07:04:08.947Z,11.93
2018-03-15T07:06:43.775Z,15.52
2018-03-15T07:09:18.995Z,14.40
2018-03-15T07:11:54.727Z,13.90
2018-03-15T07:14:29.926Z,10.05
2018-03-15T07:17:04.774Z,11.57
2018-03-15T07:19:40.213Z,11.18
2018-03-15T07:22:15.135Z,12.40
2018-03-15T07:24:50.473Z,12.17
2018-03-15T07:27:25.405Z,13.53
2018-03-15T07:30:00.951Z,14.10
2018-03-15T07:32:36.095Z,14.87
2018-03-15T07:35:11.084Z,13.60
2018-03-15T07:37:45.903Z,11.07
2018-03-15T07:40:21.065Z,12.33
2018-03-15T07:42:56.028Z,12.60
2018-03-15T07:45:31.156Z,9.17
2018-03-15T07:48:05.993Z,11.70
2018-03-15T07:50:41.332Z,14.10
2018-03-15T07:53:16.117Z,12.07
2018-03-15T07:55:51.096Z,9.93
2018-03-15T07:58:26.083Z,13.10
2018-03-15T08:01:00.439Z,13.10
2018-03-15T08:03:35.500Z,12.07
2018-03-15T08:06:11.040Z,11.80
2018-03-15T08:08:46.364Z,8.53
2018-03-15T08:11:21.406Z,10.23
2018-03-15T08:13:56.020Z,9.75
2018-03-15T08:16:31.362Z,12.03
2018-03-15T08:19:06.255Z,11.67
2018-03-15T08:21:41.324Z,10.53
2018-03-15T08:24:16.393Z,8.90
2018-03-15T08:26:51.515Z,11.17
2018-03-15T08:29:26.456Z,15.10
2018-03-15T08:32:01.484Z,13.20
2018-03-15T08:34:36.416Z,13.43
2018-03-15T08:37:11.453Z,11.47
2018-03-15T08:39:46.983Z,10.25
2018-03-15T08:42:22.024Z,11.20
2018-03-15T08:44:56.560Z,11.50
2018-03-15T08:47:31.508Z,9.90
2018-03-15T08:50:05.815Z,10.48
2018-03-15T08:52:41.027Z,9.75
2018-03-15T08:55:16.198Z,9.73
2018-03-15T08:57:51.183Z,11.73
2018-03-15T09:00:26.634Z,10.87
2018-03-15T09:03:01.138Z,10.43
2018-03-15T09:05:36.372Z,13.83
2018-03-15T09:08:11.266Z,10.70
2018-03-15T09:10:46.395Z,9.33
2018-03-15T09:13:21.246Z,12.20
2018-03-15T09:15:55.904Z,8.93
2018-03-15T09:18:31.001Z,11.37
2018-03-15T09:21:06.224Z,10.43
2018-03-15T09:23:41.510Z,11.30
2018-03-15T09:26:16.310Z,8.43
2018-03-15T09:28:51.767Z,9.60
2018-03-15T09:31:26.285Z,9.30
2018-03-15T09:34:01.352Z,8.80
2018-03-15T09:36:36.479Z,9.83
2018-03-15T09:39:11.405Z,10.47
2018-03-15T09:41:47.069Z,11.20
2018-03-15T09:44:22.037Z,9.67
2018-03-15T09:46:57.010Z,10.17
2018-03-15T09:49:32.261Z,9.20
2018-03-15T09:52:07.296Z,7.10
2018-03-15T09:54:42.531Z,11.20
2018-03-15T09:57:17.288Z,11.40
2018-03-15T09:59:52.288Z,10.37
2018-03-15T10:02:27.382Z,8.13
2018-03-15T10:05:02.374Z,10.03
2018-03-15T10:07:37.638Z,9.77
2018-03-15T10:10:13.200Z,10.55
2018-03-15T10:12:48.339Z,7.00
2018-03-15T10:15:23.394Z,10.60
2018-03-15T10:17:58.327Z,9.40
2018-03-15T10:20:33.551Z,8.40
2018-03-15T10:23:08.686Z,10.33
2018-03-15T10:25:44.614Z,9.00
2018-03-15T10:28:19.411Z,11.50
2018-03-15T10:30:54.449Z,10.13
2018-03-15T10:33:35.167Z,12.23
2018-03-15T10:36:10.436Z,8.77
2018-03-15T10:38:45.988Z,12.57
2018-03-15T10:41:21.327Z,11.48
2018-03-15T10:43:56.452Z,11.37
2018-03-15T10:46:31.612Z,10.10
2018-03-15T10:49:06.776Z,12.67
2018-03-15T10:51:41.922Z,12.03
2018-03-15T10:54:17.389Z,11.23
2018-03-15T10:56:52.564Z,12.13
2018-03-15T10:59:27.614Z,11.20
2018-03-15T11:02:06.538Z,10.10
2018-03-15T11:04:47.079Z,13.00
2018-03-15T11:07:27.797Z,11.40
2018-03-15T11:10:03.454Z,10.60
2018-03-15T11:12:38.642Z,13.25
2018-03-15T11:15:13.901Z,12.10
2018-03-15T11:17:49.419Z,13.73
2018-03-15T11:20:24.558Z,9.00
2018-03-15T11:22:59.539Z,12.37
2018-03-15T11:25:34.801Z,12.17
2018-03-15T11:28:09.763Z,10.93
2018-03-15T11:30:45.389Z,12.65
2018-03-15T11:33:20.504Z,14.07
2018-03-15T11:35:55.642Z,10.93
2018-03-15T11:38:30.750Z,10.10
2018-03-15T11:41:05.426Z,8.60
2018-03-15T11:43:41.035Z,9.60
2018-03-15T11:46:16.247Z,11.23
2018-03-15T11:48:51.595Z,13.23
2018-03-15T11:51:26.772Z,13.47
2018-03-15T11:54:01.842Z,12.87
2018-03-15T11:56:37.790Z,9.40
2018-03-15T11:59:13.548Z,9.35
2018-03-15T12:01:48.657Z,13.57
2018-03-15T12:04:23.626Z,12.80
2018-03-15T12:06:58.625Z,10.30
2018-03-15T12:09:33.835Z,12.40
2018-03-15T12:12:08.788Z,11.50
2018-03-15T12:14:44.247Z,9.17
2018-03-15T12:17:19.700Z,10.27
2018-03-15T12:19:54.736Z,13.20
2018-03-15T12:22:30.090Z,13.60
2018-03-15T12:25:04.409Z,10.73
2018-03-15T12:27:39.663Z,12.40
2018-03-15T12:30:14.613Z,10.23
2018-03-15T12:32:49.624Z,12.27
2018-03-15T12:35:24.901Z,14.30
2018-03-15T12:37:59.719Z,13.63
2018-03-15T12:40:34.967Z,15.77
2018-03-15T12:43:09.702Z,15.57
2018-03-15T12:45:44.939Z,14.70
2018-03-15T12:48:19.879Z,14.53
2018-03-15T12:50:54.902Z,15.73
2018-03-15T12:53:30.064Z,15.47
2018-03-15T12:56:04.447Z,12.53
2018-03-15T12:58:39.571Z,12.63
2018-03-15T13:01:14.417Z,14.47
2018-03-15T13:03:49.727Z,16.03
2018-03-15T13:06:24.874Z,17.70
2018-03-15T13:08:59.821Z,14.03
2018-03-15T13:11:34.468Z,13.07
2018-03-15T13:14:09.832Z,14.33
2018-03-15T13:16:45.099Z,13.63
2018-03-15T13:19:20.227Z,11.20
2018-03-15T13:21:55.270Z,9.93
2018-03-15T13:24:30.725Z,10.87
2018-03-15T13:27:05.260Z,11.10
2018-03-15T13:29:39.722Z,13.70
2018-03-15T13:32:15.133Z,12.60
2018-03-15T13:34:49.966Z,12.27
2018-03-15T13:37:24.859Z,14.73
2018-03-15T13:39:59.902Z,13.77
2018-03-15T13:42:35.094Z,11.90
2018-03-15T13:45:10.059Z,12.70
2018-03-15T13:47:45.131Z,14.90
2018-03-15T13:50:19.934Z,13.93
2018-03-15T13:52:55.088Z,14.63
2018-03-15T13:55:30.292Z,13.57
2018-03-15T13:58:05.696Z,17.00
2018-03-15T14:00:40.872Z,15.10
2018-03-15T14:03:15.840Z,13.60
2018-03-15T14:05:50.844Z,16.00
2018-03-15T14:08:25.400Z,14.97
2018-03-15T14:11:00.428Z,14.50
2018-03-15T14:13:35.376Z,16.00
2018-03-15T14:16:10.084Z,15.30
2018-03-15T14:18:44.921Z,13.27
2018-03-15T14:21:20.076Z,14.67
2018-03-15T14:23:55.299Z,13.53
2018-03-15T14:26:30.127Z,12.87
2018-03-15T14:29:04.459Z,12.43
2018-03-15T14:31:39.092Z,17.48
2018-03-15T14:34:14.031Z,14.13
2018-03-15T14:36:49.171Z,17.33
2018-03-15T14:39:24.776Z,11.00
2018-03-15T14:41:59.900Z,17.03
2018-03-15T14:44:35.047Z,15.90
2018-03-15T14:47:09.831Z,14.27
2018-03-15T14:49:44.946Z,17.50
2018-03-15T14:52:20.001Z,12.60
2018-03-15T14:54:55.248Z,15.50
2018-03-15T14:57:30.366Z,17.00
2018-03-15T15:00:05.229Z,15.07
2018-03-15T15:02:40.202Z,18.08
2018-03-15T15:05:14.975Z,16.30
2018-03-15T15:07:50.119Z,19.03
2018-03-15T15:10:25.165Z,17.03
2018-03-15T15:13:00.233Z,17.70
2018-03-15T15:15:35.067Z,18.85
2018-03-15T15:18:10.064Z,19.27
2018-03-15T15:20:45.289Z,16.42
2018-03-15T15:23:20.318Z,19.17
2018-03-15T15:25:55.355Z,17.13
2018-03-15T15:28:30.435Z,16.98
2018-03-15T15:31:04.837Z,14.33
2018-03-15T15:33:40.308Z,19.27
2018-03-15T15:36:15.378Z,14.50
2018-03-15T15:38:50.524Z,15.03
2018-03-15T15:41:25.402Z,16.13
2018-03-15T15:44:00.329Z,10.50
2018-03-15T15:46:35.564Z,16.60
2018-03-15T15:49:10.112Z,14.83
2018-03-15T15:51:45.331Z,13.80
2018-03-15T15:54:19.960Z,16.42
2018-03-15T15:56:54.719Z,17.67
2018-03-15T15:59:30.446Z,16.90
2018-03-15T16:02:05.206Z,16.20
2018-03-15T16:04:39.635Z,15.60
2018-03-15T16:07:14.186Z,15.60
2018-03-15T16:09:49.161Z,15.20
2018-03-15T16:12:23.514Z,14.83
2018-03-15T16:14:58.459Z,13.40
2018-03-15T16:17:33.802Z,15.60
2018-03-15T16:20:08.443Z,15.67
2018-03-15T16:22:43.444Z,18.47
2018-03-15T16:25:18.483Z,17.60
2018-03-15T16:27:53.416Z,13.00
2018-03-15T16:30:28.399Z,12.97
2018-03-15T16:33:03.588Z,15.53
2018-03-15T16:35:39.128Z,16.77
2018-03-15T16:38:14.489Z,15.97
2018-03-15T16:40:49.625Z,16.50
2018-03-15T16:43:24.248Z,13.80
2018-03-15T16:45:59.219Z,15.07
2018-03-15T16:48:34.451Z,13.30
2018-03-15T16:51:09.432Z,10.70
2018-03-15T16:53:44.940Z,15.13
2018-03-15T16:56:19.600Z,13.90
2018-03-15T16:58:54.604Z,15.80
2018-03-15T17:01:30.646Z,16.98
2018-03-15T17:04:06.088Z,14.40
2018-03-15T17:06:41.148Z,14.43
2018-03-15T17:09:16.231Z,16.47
2018-03-15T17:11:51.234Z,13.33
2018-03-15T17:14:26.425Z,13.15
2018-03-15T17:17:01.500Z,14.53
2018-03-15T17:19:36.603Z,14.83
2018-03-15T17:22:11.528Z,14.40
2018-03-15T17:24:46.637Z,14.80
2018-03-15T17:27:21.567Z,13.60
2018-03-15T17:29:56.314Z,14.70
2018-03-15T17:32:31.647Z,13.17
2018-03-15T17:35:06.541Z,14.47
2018-03-15T17:37:41.825Z,16.73
2018-03-15T17:40:17.348Z,18.10
2018-03-15T17:42:52.314Z,9.43
2018-03-15T17:45:27.546Z,14.77
2018-03-15T17:48:02.395Z,10.80
2018-03-15T17:50:37.844Z,16.30
2018-03-15T17:53:12.874Z,15.90
2018-03-15T17:55:48.391Z,17.92
2018-03-15T17:58:23.634Z,15.30
2018-03-15T18:00:58.382Z,14.77
2018-03-15T18:03:33.223Z,13.50
2018-03-15T18:06:08.251Z,15.30
2018-03-15T18:08:43.639Z,16.33
2018-03-15T18:11:18.379Z,12.32
2018-03-15T18:13:53.496Z,10.00
2018-03-15T18:16:28.536Z,16.70
2018-03-15T18:19:03.585Z,14.67
2018-03-15T18:21:38.800Z,11.70
2018-03-15T18:24:13.450Z,16.53
2018-03-15T18:26:48.589Z,10.00
2018-03-15T18:29:23.732Z,12.80
2018-03-15T18:31:58.792Z,14.37
2018-03-15T18:34:33.934Z,16.10
2018-03-15T18:37:08.935Z,17.47
2018-03-15T18:39:43.892Z,17.73
2018-03-15T18:42:19.492Z,19.23
2018-03-15T18:44:54.456Z,11.70
2018-03-15T18:47:29.136Z,14.00
2018-03-15T18:50:03.607Z,16.67
2018-03-15T18:52:38.443Z,16.80
2018-03-15T18:55:13.578Z,14.07
2018-03-15T18:57:48.519Z,18.55
2018-03-15T19:00:23.534Z,12.50
2018-03-15T19:02:58.675Z,11.90
2018-03-15T19:05:34.306Z,13.80
2018-03-15T19:08:09.134Z,14.67
2018-03-15T19:10:44.109Z,17.37
2018-03-15T19:13:18.776Z,17.03
2018-03-15T19:15:53.207Z,12.32
2018-03-15T19:18:27.869Z,13.30
2018-03-15T19:21:02.553Z,10.73
2018-03-15T19:23:37.544Z,14.83
2018-03-15T19:26:12.294Z,15.23
2018-03-15T19:28:47.740Z,15.13
2018-03-15T19:31:22.779Z,15.53
2018-03-15T19:33:57.628Z,11.60
2018-03-15T19:36:32.371Z,11.93
2018-03-15T19:39:07.828Z,17.90
2018-03-15T19:41:42.595Z,13.23
2018-03-15T19:44:16.998Z,15.47
2018-03-15T19:46:51.818Z,10.20
2018-03-15T19:49:27.285Z,12.17
2018-03-15T19:52:02.269Z,14.90
2018-03-15T19:54:37.554Z,13.70
2018-03-15T19:57:12.672Z,14.20
2018-03-15T19:59:48.437Z,11.80
2018-03-15T20:02:22.912Z,16.57
2018-03-15T20:04:57.782Z,15.13
2018-03-15T20:07:33.053Z,12.90
2018-03-15T20:10:07.855Z,13.20
2018-03-15T20:12:43.500Z,17.52
2018-03-15T20:15:18.090Z,15.00
2018-03-15T20:17:52.680Z,15.00
2018-03-15T20:20:27.917Z,15.10
2018-03-15T20:23:08.210Z,10.63
2018-03-15T20:25:43.638Z,15.05
2018-03-15T20:28:24.122Z,11.73
2018-03-15T20:30:59.763Z,13.57
2018-03-15T20:33:40.432Z,12.37
2018-03-15T20:36:15.074Z,15.50
2018-03-15T20:38:50.294Z,13.00
2018-03-15T20:41:25.632Z,15.17
2018-03-15T20:44:00.978Z,11.40
2018-03-15T20:46:41.500Z,17.23
2018-03-15T20:49:16.965Z,12.17
2018-03-15T20:51:51.922Z,14.50
2018-03-15T20:54:27.182Z,12.87
2018-03-15T20:57:02.291Z,12.47
2018-03-15T20:59:38.065Z,20.52
2018-03-15T21:02:12.413Z,11.90
2018-03-15T21:04:47.836Z,15.50
2018-03-15T21:07:22.755Z,14.85
2018-03-15T21:09:57.674Z,14.90
2018-03-15T21:12:32.788Z,18.67
2018-03-15T21:15:07.848Z,12.60
2018-03-15T21:17:43.074Z,16.07
2018-03-15T21:20:18.120Z,14.57
2018-03-15T21:22:53.426Z,16.87
2018-03-15T21:25:27.939Z,19.50
2018-03-15T21:28:02.956Z,19.20
2018-03-15T21:30:38.157Z,15.90
2018-03-15T21:33:13.297Z,17.97
2018-03-15T21:35:47.962Z,17.50
2018-03-15T21:38:22.991Z,13.57
2018-03-15T21:40:58.170Z,18.17
2018-03-15T21:43:33.431Z,17.00
2018-03-15T21:46:08.940Z,16.93
2018-03-15T21:48:44.079Z,16.10
2018-03-15T21:51:18.899Z,18.37
2018-03-15T21:53:53.880Z,20.47
2018-03-15T21:56:29.126Z,17.60
2018-03-15T21:59:04.172Z,20.00
2018-03-15T22:01:39.391Z,18.10
2018-03-15T22:04:14.362Z,17.27
2018-03-15T22:06:49.285Z,14.63
2018-03-15T22:09:24.051Z,18.63
2018-03-15T22:11:59.276Z,14.90
2018-03-15T22:14:34.764Z,17.50
2018-03-15T22:17:10.011Z,11.80
2018-03-15T22:19:45.297Z,17.37
2018-03-15T22:22:19.912Z,15.70
2018-03-15T22:24:55.046Z,21.00
2018-03-15T22:27:31.336Z,15.20
2018-03-15T22:30:06.153Z,19.20
2018-03-15T22:32:41.258Z,20.17
2018-03-15T22:35:16.326Z,19.60
2018-03-15T22:37:51.316Z,18.90
2018-03-15T22:40:26.198Z,19.97
2018-03-15T22:43:01.055Z,18.80
2018-03-15T22:45:36.280Z,21.30
2018-03-15T22:48:11.127Z,24.20
2018-03-15T22:50:46.327Z,22.90
2018-03-15T22:53:21.141Z,22.60
2018-03-15T22:55:56.121Z,18.70
2018-03-15T22:58:31.450Z,19.27
2018-03-15T23:01:07.013Z,15.40
2018-03-15T23:03:42.068Z,17.73
2018-03-15T23:06:17.072Z,17.37
2018-03-15T23:08:52.153Z,15.87
2018-03-15T23:11:27.225Z,16.43
2018-03-15T23:14:02.356Z,22.97
2018-03-15T23:16:37.523Z,16.50
2018-03-15T23:19:12.488Z,18.13
2018-03-15T23:21:47.556Z,21.90
2018-03-15T23:24:22.592Z,18.53
2018-03-15T23:26:57.596Z,21.70
2018-03-15T23:29:32.817Z,23.20
2018-03-15T23:32:07.678Z,21.93
2018-03-15T23:34:42.729Z,21.07
2018-03-15T23:37:17.348Z,19.40
2018-03-15T23:39:52.404Z,22.83
2018-03-15T23:42:27.015Z,25.48
2018-03-15T23:45:02.185Z,25.40
2018-03-15T23:47:37.466Z,22.20
2018-03-15T23:50:12.498Z,27.30
2018-03-15T23:52:47.122Z,26.35
2018-03-15T23:55:22.297Z,25.90
2018-03-15T23:57:57.345Z,21.70
